Time;durP1;ratioP1;P1;durP2;ratioP2;P2;SDS_P1;SDS_P2;PMS_P1;PMS_P2;Temp;Humidity;BMP_temperature;BMP_pressure;BME280_temperature;BME280_humidity;BME280_pressure;Samples;Min_cycle;Max_cycle;Signal;HPM_P1;HPM_P2
2024/03/08 00:03:06;;;;;;;34.67;13.90;;;;;;;;;;6195069;23;20279;-89
2024/03/08 00:06:11;;;;;;;34.53;13.47;;;;;;;;;;6195362;23;20167;-89
2024/03/08 00:09:16;;;;;;;30.67;13.17;;;;;;;;;;6195407;23;20167;-89
2024/03/08 00:12:21;;;;;;;34.97;14.47;;;;;;;;;;6195033;23;20199;-89
2024/03/08 00:15:29;;;;;;;34.47;13.20;;;;;;;;;;6194337;23;20176;-88
2024/03/08 00:18:36;;;;;;;36.63;13.90;;;;;;;;;;6178418;23;20691;-89
2024/03/08 00:21:41;;;;;;;33.90;14.17;;;;;;;;;;6178485;23;20627;-89
2024/03/08 00:24:46;;;;;;;35.57;13.87;;;;;;;;;;6195278;23;20207;-88
2024/03/08 00:27:55;;;;;;;31.13;13.77;;;;;;;;;;6178058;23;20219;-89
2024/03/08 00:31:00;;;;;;;36.97;15.77;;;;;;;;;;6194374;23;20183;-88
2024/03/08 00:34:07;;;;;;;39.70;14.33;;;;;;;;;;6179056;23;20163;-90
2024/03/08 00:37:12;;;;;;;33.50;13.30;;;;;;;;;;6196426;23;20168;-89
2024/03/08 00:40:17;;;;;;;38.50;15.00;;;;;;;;;;6178079;23;20172;-89
2024/03/08 00:43:22;;;;;;;37.53;14.53;;;;;;;;;;6195306;23;20168;-90
2024/03/08 00:46:31;;;;;;;33.10;13.50;;;;;;;;;;6178197;23;20622;-88
2024/03/08 00:49:38;;;;;;;39.00;15.37;;;;;;;;;;6178295;23;20200;-89
2024/03/08 00:52:44;;;;;;;33.67;14.40;;;;;;;;;;6180498;23;20227;-88
2024/03/08 00:55:49;;;;;;;38.97;14.70;;;;;;;;;;6177784;23;20207;-88
2024/03/08 00:58:54;;;;;;;42.77;15.63;;;;;;;;;;6179056;23;20187;-88
2024/03/08 01:02:00;;;;;;;38.37;14.83;;;;;;;;;;6177467;23;20318;-89
2024/03/08 01:05:07;;;;;;;37.63;14.90;;;;;;;;;;6179087;23;20172;-89
2024/03/08 01:08:12;;;;;;;38.40;15.43;;;;;;;;;;6195818;23;20242;-89
2024/03/08 01:11:17;;;;;;;38.30;14.90;;;;;;;;;;6179599;23;20187;-89
2024/03/08 01:14:23;;;;;;;40.93;14.47;;;;;;;;;;6197099;23;20155;-89
2024/03/08 01:17:28;;;;;;;33.90;14.37;;;;;;;;;;6197032;23;20160;-89
2024/03/08 01:20:35;;;;;;;37.23;14.33;;;;;;;;;;6197517;23;20288;-88
2024/03/08 01:23:41;;;;;;;35.97;14.13;;;;;;;;;;6198695;23;20167;-89
2024/03/08 01:26:47;;;;;;;33.27;13.60;;;;;;;;;;6195355;23;20279;-90
2024/03/08 01:29:52;;;;;;;37.53;14.17;;;;;;;;;;6197570;23;20168;-88
2024/03/08 01:32:57;;;;;;;44.27;15.47;;;;;;;;;;6180254;23;20179;-89
2024/03/08 01:36:03;;;;;;;42.63;15.13;;;;;;;;;;6178714;23;20295;-89
2024/03/08 01:39:09;;;;;;;39.87;15.73;;;;;;;;;;6178663;23;20167;-88
2024/03/08 01:42:16;;;;;;;35.63;15.10;;;;;;;;;;6179895;23;20183;-88
2024/03/08 01:45:22;;;;;;;49.17;15.67;;;;;;;;;;6195699;23;20164;-88
2024/03/08 01:48:26;;;;;;;40.80;15.27;;;;;;;;;;6195520;23;20167;-87
2024/03/08 01:51:33;;;;;;;42.97;16.03;;;;;;;;;;6177609;23;20196;-89
2024/03/08 01:54:38;;;;;;;41.30;15.37;;;;;;;;;;6179913;23;20148;-89
2024/03/08 01:57:43;;;;;;;44.07;16.60;;;;;;;;;;6179193;23;20174;-89
2024/03/08 02:00:54;;;;;;;40.30;15.63;;;;;;;;;;6180695;23;20207;-89
2024/03/08 02:04:00;;;;;;;40.17;16.40;;;;;;;;;;6198790;23;20243;-88
2024/03/08 02:07:06;;;;;;;38.20;15.37;;;;;;;;;;6181209;23;20346;-89
2024/03/08 02:10:12;;;;;;;39.30;15.70;;;;;;;;;;6180016;23;20167;-89
2024/03/08 02:13:17;;;;;;;39.77;15.80;;;;;;;;;;6182313;23;20167;-89
2024/03/08 02:16:22;;;;;;;40.43;15.30;;;;;;;;;;6196450;23;20164;-89
2024/03/08 02:19:27;;;;;;;40.13;15.77;;;;;;;;;;6196210;23;20199;-88
2024/03/08 02:22:35;;;;;;;35.70;14.90;;;;;;;;;;6198714;23;20267;-88
2024/03/08 02:25:41;;;;;;;37.07;15.07;;;;;;;;;;6180618;23;20244;-87
2024/03/08 02:28:47;;;;;;;40.60;14.90;;;;;;;;;;6180189;23;20180;-88
2024/03/08 02:31:52;;;;;;;37.63;15.17;;;;;;;;;;6179655;23;20191;-88
2024/03/08 02:34:59;;;;;;;38.80;15.83;;;;;;;;;;6196358;23;20222;-88
2024/03/08 02:38:06;;;;;;;39.10;15.63;;;;;;;;;;6177854;23;20246;-89
2024/03/08 02:41:12;;;;;;;43.13;15.10;;;;;;;;;;6196630;23;20175;-89
2024/03/08 02:44:17;;;;;;;34.47;14.73;;;;;;;;;;6196488;23;20180;-89
2024/03/08 02:47:22;;;;;;;37.33;15.20;;;;;;;;;;6179517;23;20165;-88
2024/03/08 02:50:28;;;;;;;38.37;16.03;;;;;;;;;;6196822;23;20164;-88
2024/03/08 02:53:35;;;;;;;43.83;16.53;;;;;;;;;;6195255;23;20171;-88
2024/03/08 02:56:41;;;;;;;42.13;15.37;;;;;;;;;;6195444;23;20251;-89
2024/03/08 02:59:46;;;;;;;43.57;16.07;;;;;;;;;;6195934;23;20172;-88
2024/03/08 03:02:53;;;;;;;42.87;15.77;;;;;;;;;;6178947;23;20616;-89
2024/03/08 03:05:58;;;;;;;41.27;15.00;;;;;;;;;;6179094;23;20225;-87
2024/03/08 03:09:06;;;;;;;38.73;15.30;;;;;;;;;;6179222;23;20155;-88
2024/03/08 03:12:11;;;;;;;45.27;15.67;;;;;;;;;;6195728;23;20199;-88
2024/03/08 03:15:17;;;;;;;44.33;15.47;;;;;;;;;;6196231;23;20171;-88
2024/03/08 03:18:23;;;;;;;39.77;14.53;;;;;;;;;;6196459;23;20555;-89
2024/03/08 03:21:31;;;;;;;40.33;15.80;;;;;;;;;;6178525;23;20172;-88
2024/03/08 03:24:38;;;;;;;37.03;15.27;;;;;;;;;;6196398;23;20209;-88
2024/03/08 03:27:46;;;;;;;40.93;15.97;;;;;;;;;;6178326;23;20618;-88
2024/03/08 03:30:52;;;;;;;39.50;15.30;;;;;;;;;;6179061;23;20155;-89
2024/03/08 03:34:01;;;;;;;37.00;14.83;;;;;;;;;;6180621;23;20172;-87
2024/03/08 03:37:08;;;;;;;37.90;15.13;;;;;;;;;;6197233;23;20172;-88
2024/03/08 03:40:17;;;;;;;40.53;16.57;;;;;;;;;;6197529;23;20619;-88
2024/03/08 03:43:22;;;;;;;40.63;16.23;;;;;;;;;;6194635;23;20176;-88
2024/03/08 03:46:28;;;;;;;41.70;15.63;;;;;;;;;;6196575;23;20151;-88
2024/03/08 03:49:33;;;;;;;45.47;15.27;;;;;;;;;;6179759;23;20167;-87
2024/03/08 03:52:38;;;;;;;41.70;15.00;;;;;;;;;;6179023;23;20253;-88
2024/03/08 03:55:45;;;;;;;45.53;15.80;;;;;;;;;;6196846;23;20152;-89
2024/03/08 03:58:51;;;;;;;35.93;14.47;;;;;;;;;;6197081;23;20716;-88
2024/03/08 04:01:56;;;;;;;37.67;15.20;;;;;;;;;;6178902;23;20252;-89
2024/03/08 04:05:02;;;;;;;38.83;14.63;;;;;;;;;;6196411;23;20203;-87
2024/03/08 04:08:07;;;;;;;39.10;14.87;;;;;;;;;;6197608;23;20155;-87
2024/03/08 04:11:16;;;;;;;44.30;15.03;;;;;;;;;;6179154;23;20164;-88
2024/03/08 04:14:21;;;;;;;36.47;14.70;;;;;;;;;;6180205;23;20191;-88
2024/03/08 04:17:26;;;;;;;38.83;15.27;;;;;;;;;;6196909;23;20167;-87
2024/03/08 04:20:31;;;;;;;37.77;14.57;;;;;;;;;;6179828;23;20168;-88
2024/03/08 04:23:37;;;;;;;42.10;15.33;;;;;;;;;;6180437;23;20253;-88
2024/03/08 04:26:43;;;;;;;40.27;14.83;;;;;;;;;;6196972;23;20171;-88
2024/03/08 04:29:48;;;;;;;42.00;15.77;;;;;;;;;;6197500;23;20183;-88
2024/03/08 04:32:53;;;;;;;44.23;15.60;;;;;;;;;;6197227;23;20195;-88
2024/03/08 04:35:59;;;;;;;40.97;15.13;;;;;;;;;;6180788;23;20220;-89
2024/03/08 04:39:04;;;;;;;43.73;15.53;;;;;;;;;;6180395;23;20580;-88
2024/03/08 04:42:11;;;;;;;39.40;14.87;;;;;;;;;;6198198;23;20168;-89
2024/03/08 04:45:17;;;;;;;42.80;15.37;;;;;;;;;;6198053;23;20164;-88
2024/03/08 04:48:22;;;;;;;38.90;14.33;;;;;;;;;;6180127;23;20172;-89
2024/03/08 04:51:27;;;;;;;42.00;15.80;;;;;;;;;;6181816;23;20217;-88
2024/03/08 04:54:32;;;;;;;45.90;15.80;;;;;;;;;;6181991;23;20251;-88
2024/03/08 04:57:39;;;;;;;41.40;15.97;;;;;;;;;;6182059;23;20631;-87
2024/03/08 05:00:44;;;;;;;43.17;15.10;;;;;;;;;;6181677;23;20187;-88
2024/03/08 05:03:50;;;;;;;36.93;15.07;;;;;;;;;;6180689;23;20152;-89
2024/03/08 05:06:57;;;;;;;42.70;15.60;;;;;;;;;;6199260;23;20168;-89
2024/03/08 05:10:03;;;;;;;40.40;14.40;;;;;;;;;;6200533;23;20168;-87
2024/03/08 05:13:09;;;;;;;40.67;14.43;;;;;;;;;;6198963;23;20243;-87
2024/03/08 05:16:15;;;;;;;38.03;14.80;;;;;;;;;;6199968;23;20188;-87
2024/03/08 05:19:22;;;;;;;40.87;13.97;;;;;;;;;;6200084;23;20180;-89
2024/03/08 05:22:27;;;;;;;40.07;14.53;;;;;;;;;;6201866;23;20168;-88
2024/03/08 05:25:32;;;;;;;40.53;13.73;;;;;;;;;;6200283;23;20167;-90
2024/03/08 05:28:39;;;;;;;40.17;14.73;;;;;;;;;;6198082;23;20163;-88
2024/03/08 05:31:47;;;;;;;47.17;15.57;;;;;;;;;;6196357;23;20612;-88
2024/03/08 05:34:53;;;;;;;44.87;15.80;;;;;;;;;;6179649;23;20151;-89
2024/03/08 05:37:58;;;;;;;43.93;15.87;;;;;;;;;;6196013;23;20155;-90
2024/03/08 05:41:04;;;;;;;50.43;16.53;;;;;;;;;;6181295;23;20175;-90
2024/03/08 05:44:12;;;;;;;41.70;15.93;;;;;;;;;;6198992;23;20505;-89
2024/03/08 05:47:19;;;;;;;36.50;13.77;;;;;;;;;;6180783;23;20236;-89
2024/03/08 05:50:25;;;;;;;41.30;14.87;;;;;;;;;;6199019;23;20243;-89
2024/03/08 05:53:31;;;;;;;40.63;15.23;;;;;;;;;;6198525;23;20187;-89
2024/03/08 05:56:37;;;;;;;39.80;13.90;;;;;;;;;;6183638;23;20268;-89
2024/03/08 05:59:43;;;;;;;37.60;13.83;;;;;;;;;;6182675;23;20276;-90
2024/03/08 06:02:51;;;;;;;37.50;15.73;;;;;;;;;;6201552;23;20187;-89
2024/03/08 06:05:57;;;;;;;39.00;14.83;;;;;;;;;;6200883;23;20251;-89
2024/03/08 06:09:09;;;;;;;42.33;16.87;;;;;;;;;;6181875;23;20167;-90
2024/03/08 06:12:18;;;;;;;40.97;15.47;;;;;;;;;;6199864;23;20191;-89
2024/03/08 06:15:25;;;;;;;43.87;16.10;;;;;;;;;;6182305;23;20167;-90
2024/03/08 06:18:31;;;;;;;42.60;17.03;;;;;;;;;;6184282;23;20181;-90
2024/03/08 06:21:37;;;;;;;42.80;16.53;;;;;;;;;;6182358;23;20167;-88
2024/03/08 06:24:43;;;;;;;48.83;16.83;;;;;;;;;;6198570;23;20284;-88
2024/03/08 06:27:48;;;;;;;46.03;17.27;;;;;;;;;;6182620;23;20171;-87
2024/03/08 06:30:54;;;;;;;47.10;15.70;;;;;;;;;;6183115;23;20176;-89
2024/03/08 06:34:07;;;;;;;46.63;17.97;;;;;;;;;;6199163;23;20200;-89
2024/03/08 06:37:12;;;;;;;47.90;17.13;;;;;;;;;;6200442;23;20291;-89
2024/03/08 06:40:17;;;;;;;42.57;16.70;;;;;;;;;;6197336;23;20172;-89
2024/03/08 06:43:24;;;;;;;43.87;16.57;;;;;;;;;;6179543;23;20160;-89
2024/03/08 06:46:30;;;;;;;40.43;15.67;;;;;;;;;;6198646;23;20208;-88
2024/03/08 06:49:36;;;;;;;42.47;15.50;;;;;;;;;;6199154;23;20167;-88
2024/03/08 06:52:42;;;;;;;39.00;15.47;;;;;;;;;;6182270;23;20191;-90
2024/03/08 06:55:47;;;;;;;35.53;14.40;;;;;;;;;;6181009;23;20167;-89
2024/03/08 06:58:53;;;;;;;46.63;16.73;;;;;;;;;;6182630;23;20168;-87
2024/03/08 07:02:00;;;;;;;51.77;16.20;;;;;;;;;;6179415;23;20191;-90
2024/03/08 07:05:06;;;;;;;38.33;15.03;;;;;;;;;;6182542;23;20240;-89
2024/03/08 07:08:13;;;;;;;45.67;16.20;;;;;;;;;;6180874;23;20168;-87
2024/03/08 07:11:19;;;;;;;38.87;16.13;;;;;;;;;;6179274;23;20484;-90
2024/03/08 07:14:24;;;;;;;50.97;16.50;;;;;;;;;;6197924;23;20183;-90
2024/03/08 07:17:30;;;;;;;43.10;15.80;;;;;;;;;;6198026;23;20168;-90
2024/03/08 07:20:37;;;;;;;41.83;14.73;;;;;;;;;;6181163;23;20215;-90
2024/03/08 07:24:02;;;;;;;41.87;16.30;;;;;;;;;;6199278;23;20314;-89
2024/03/08 07:27:08;;;;;;;40.70;16.20;;;;;;;;;;6198513;23;20148;-90
2024/03/08 07:30:51;;;;;;;43.37;16.93;;;;;;;;;;6180623;23;20152;-90
2024/03/08 07:33:40;;;;;;;40.00;16.27;;;;;;;;;;6181755;23;20266;-90
2024/03/08 07:36:46;;;;;;;42.57;16.87;;;;;;;;;;6182794;23;20172;-88
2024/03/08 07:39:51;;;;;;;81.20;24.07;;;;;;;;;;6198223;23;20151;-89
2024/03/08 07:42:58;;;;;;;78.23;30.40;;;;;;;;;;6179859;23;20258;-90
2024/03/08 07:46:03;;;;;;;43.80;16.57;;;;;;;;;;6200188;23;20172;-89
2024/03/08 07:49:11;;;;;;;49.77;20.73;;;;;;;;;;6184443;23;20211;-88
2024/03/08 07:52:18;;;;;;;38.13;15.53;;;;;;;;;;6197287;23;20209;-90
2024/03/08 07:55:24;;;;;;;42.63;17.87;;;;;;;;;;6184607;23;20172;-88
2024/03/08 07:58:29;;;;;;;37.40;15.27;;;;;;;;;;6198764;23;20219;-90
2024/03/08 08:01:35;;;;;;;33.10;13.03;;;;;;;;;;6201063;23;20179;-89
2024/03/08 08:04:44;;;;;;;35.30;12.97;;;;;;;;;;6203061;23;20228;-90
2024/03/08 08:07:52;;;;;;;34.10;14.67;;;;;;;;;;6199321;23;20486;-90
2024/03/08 08:10:57;;;;;;;32.90;13.77;;;;;;;;;;6202466;23;20163;-89
2024/03/08 08:14:02;;;;;;;28.43;12.17;;;;;;;;;;6198025;23;20199;-89
2024/03/08 08:17:08;;;;;;;26.57;11.50;;;;;;;;;;6200527;23;20216;-90
2024/03/08 08:20:15;;;;;;;25.90;10.63;;;;;;;;;;6182831;23;20679;-90
2024/03/08 08:23:20;;;;;;;22.07;10.20;;;;;;;;;;6182332;23;20152;-89
2024/03/08 08:26:26;;;;;;;25.17;9.40;;;;;;;;;;6182297;23;20228;-90
2024/03/08 08:29:33;;;;;;;25.87;10.20;;;;;;;;;;6181702;23;20164;-88
2024/03/08 08:32:42;;;;;;;23.77;9.43;;;;;;;;;;6199369;23;20241;-89
2024/03/08 08:35:53;;;;;;;43.73;18.47;;;;;;;;;;6183530;23;20171;-90
2024/03/08 08:38:59;;;;;;;22.30;10.10;;;;;;;;;;6200916;23;20234;-91
2024/03/08 08:42:04;;;;;;;21.07;9.50;;;;;;;;;;6200353;23;20235;-91
2024/03/08 08:45:10;;;;;;;21.13;8.90;;;;;;;;;;6180721;23;20172;-89
2024/03/08 08:48:17;;;;;;;18.70;8.93;;;;;;;;;;6180180;23;20171;-89
2024/03/08 08:51:27;;;;;;;20.63;8.97;;;;;;;;;;6182257;23;20217;-90
2024/03/08 08:54:32;;;;;;;19.67;8.88;;;;;;;;;;6181605;23;20196;-90
2024/03/08 08:57:39;;;;;;;19.58;8.57;;;;;;;;;;6179491;23;20259;-89
2024/03/08 09:00:45;;;;;;;23.63;8.93;;;;;;;;;;6178849;23;20259;-89
2024/03/08 09:03:50;;;;;;;15.80;8.68;;;;;;;;;;6180928;23;20169;-89
2024/03/08 09:06:57;;;;;;;17.25;7.72;;;;;;;;;;6184032;23;20176;-90
2024/03/08 09:10:02;;;;;;;17.80;8.57;;;;;;;;;;6186268;23;20184;-89
2024/03/08 09:13:10;;;;;;;17.70;7.85;;;;;;;;;;6184614;23;20191;-91
2024/03/08 09:16:15;;;;;;;18.27;7.55;;;;;;;;;;6182370;23;20223;-90
2024/03/08 09:19:23;;;;;;;18.75;7.80;;;;;;;;;;6180194;23;20155;-90
2024/03/08 09:22:30;;;;;;;16.85;7.40;;;;;;;;;;6181749;23;20239;-90
2024/03/08 09:25:38;;;;;;;19.65;7.15;;;;;;;;;;6183472;23;20159;-91
2024/03/08 09:28:43;;;;;;;13.88;6.35;;;;;;;;;;6183204;23;20252;-91
2024/03/08 09:31:49;;;;;;;16.52;7.40;;;;;;;;;;6186065;23;20167;-89
2024/03/08 09:34:56;;;;;;;16.95;6.72;;;;;;;;;;6185972;23;20188;-90
2024/03/08 09:38:04;;;;;;;14.10;6.80;;;;;;;;;;6185882;23;20168;-90
2024/03/08 09:41:10;;;;;;;15.40;7.50;;;;;;;;;;6187344;23;20282;-89
2024/03/08 09:44:16;;;;;;;13.13;6.38;;;;;;;;;;6184281;23;20221;-91
2024/03/08 09:47:23;;;;;;;14.80;6.68;;;;;;;;;;6180954;23;20229;-91
2024/03/08 09:50:29;;;;;;;13.93;5.70;;;;;;;;;;6183903;23;20348;-90
2024/03/08 09:53:37;;;;;;;13.25;6.90;;;;;;;;;;6182846;23;20292;-92
2024/03/08 09:56:45;;;;;;;14.85;6.80;;;;;;;;;;6187520;23;20207;-91
2024/03/08 09:59:51;;;;;;;12.95;6.28;;;;;;;;;;6187776;23;20223;-89
2024/03/08 10:03:03;;;;;;;14.57;6.55;;;;;;;;;;6186564;23;20155;-90
2024/03/08 10:06:10;;;;;;;17.08;6.80;;;;;;;;;;6183340;23;20172;-89
2024/03/08 10:09:18;;;;;;;13.27;6.88;;;;;;;;;;6186581;23;20168;-90
2024/03/08 10:12:24;;;;;;;15.55;6.60;;;;;;;;;;6186220;23;20291;-90
2024/03/08 10:15:30;;;;;;;12.90;6.22;;;;;;;;;;6183316;23;20691;-90
2024/03/08 10:18:42;;;;;;;11.95;5.95;;;;;;;;;;6181202;23;20171;-90
2024/03/08 10:21:58;;;;;;;14.23;6.60;;;;;;;;;;6182994;23;20607;-90
2024/03/08 10:25:05;;;;;;;13.15;5.85;;;;;;;;;;6182923;23;20378;-91
2024/03/08 10:28:10;;;;;;;13.77;6.18;;;;;;;;;;6184232;23;20615;-90
2024/03/08 10:31:16;;;;;;;11.98;5.90;;;;;;;;;;6182203;23;20161;-91
2024/03/08 10:37:46;;;;;;;13.13;6.28;;;;;;;;;;6181736;23;20163;-91
2024/03/08 10:40:55;;;;;;;10.95;5.43;;;;;;;;;;6182634;23;20200;-91
2024/03/08 10:44:08;;;;;;;10.35;4.47;;;;;;;;;;6183755;23;20160;-91
2024/03/08 10:47:18;;;;;;;10.23;4.75;;;;;;;;;;6181704;23;20168;-90
2024/03/08 10:50:25;;;;;;;9.85;5.43;;;;;;;;;;6183153;23;20151;-91
2024/03/08 10:53:30;;;;;;;10.50;5.07;;;;;;;;;;6182879;23;20219;-91
2024/03/08 10:56:39;;;;;;;9.25;5.15;;;;;;;;;;6183123;23;20156;-91
2024/03/08 10:59:45;;;;;;;11.90;6.00;;;;;;;;;;6184891;23;20184;-91
2024/03/08 11:02:50;;;;;;;12.13;5.55;;;;;;;;;;6183659;23;20179;-92
2024/03/08 11:05:56;;;;;;;15.88;6.22;;;;;;;;;;6181987;23;20168;-91
2024/03/08 11:09:01;;;;;;;12.82;5.85;;;;;;;;;;6183386;23;20167;-91
2024/03/08 11:12:26;;;;;;;12.45;5.70;;;;;;;;;;6182279;23;20200;-91
2024/03/08 11:15:31;;;;;;;12.63;6.03;;;;;;;;;;6183844;23;20200;-92
2024/03/08 11:18:37;;;;;;;12.75;5.93;;;;;;;;;;6181849;23;20171;-92
2024/03/08 11:21:45;;;;;;;10.75;5.03;;;;;;;;;;6182394;23;20224;-91
2024/03/08 11:24:50;;;;;;;11.48;5.88;;;;;;;;;;6180921;23;20164;-91
2024/03/08 11:28:07;;;;;;;10.95;5.85;;;;;;;;;;6181489;23;20204;-89
2024/03/08 11:31:28;;;;;;;10.95;4.55;;;;;;;;;;6180922;23;20164;-89
2024/03/08 11:34:34;;;;;;;13.18;5.30;;;;;;;;;;6181648;23;20183;-91
2024/03/08 11:37:39;;;;;;;12.63;5.18;;;;;;;;;;6181927;23;20160;-91
2024/03/08 11:40:44;;;;;;;8.30;4.68;;;;;;;;;;6183243;23;20246;-91
2024/03/08 11:43:52;;;;;;;10.27;5.07;;;;;;;;;;6181547;23;20195;-90
2024/03/08 11:46:56;;;;;;;10.30;4.68;;;;;;;;;;6181775;23;20163;-89
2024/03/08 11:50:03;;;;;;;10.40;4.90;;;;;;;;;;6180777;23;20163;-91
2024/03/08 11:53:09;;;;;;;11.85;4.70;;;;;;;;;;6181213;23;20166;-92
2024/03/08 11:56:20;;;;;;;10.00;5.03;;;;;;;;;;6184668;23;20294;-91
2024/03/08 11:59:26;;;;;;;11.68;5.18;;;;;;;;;;6182083;23;20168;-91
2024/03/08 12:02:31;;;;;;;14.50;4.28;;;;;;;;;;6179424;23;20187;-92
2024/03/08 12:05:38;;;;;;;8.15;3.88;;;;;;;;;;6183152;23;20160;-91
2024/03/08 12:08:43;;;;;;;10.55;4.72;;;;;;;;;;6182545;23;20210;-90
2024/03/08 12:11:50;;;;;;;11.00;5.78;;;;;;;;;;6179105;23;20271;-90
2024/03/08 12:14:58;;;;;;;7.88;4.10;;;;;;;;;;6182238;23;20655;-90
2024/03/08 12:18:04;;;;;;;10.48;4.63;;;;;;;;;;6179952;23;20236;-91
2024/03/08 12:21:10;;;;;;;8.55;4.05;;;;;;;;;;6181697;23;20172;-91
2024/03/08 12:24:19;;;;;;;8.13;4.43;;;;;;;;;;6199539;23;20216;-91
2024/03/08 12:27:24;;;;;;;12.48;4.63;;;;;;;;;;6180770;23;20167;-90
2024/03/08 12:30:33;;;;;;;8.43;4.28;;;;;;;;;;6181864;23;20155;-90
2024/03/08 12:33:40;;;;;;;9.38;4.32;;;;;;;;;;6181634;23;20208;-92
2024/03/08 12:36:48;;;;;;;10.98;4.45;;;;;;;;;;6184515;23;20166;-91
2024/03/08 12:39:56;;;;;;;7.50;3.50;;;;;;;;;;6182348;23;20207;-91
2024/03/08 12:43:03;;;;;;;9.02;4.30;;;;;;;;;;6181133;23;20175;-91
2024/03/08 12:46:20;;;;;;;6.72;3.65;;;;;;;;;;6181855;23;20288;-93
2024/03/08 12:49:27;;;;;;;7.63;3.97;;;;;;;;;;6180325;23;20172;-91
2024/03/08 12:52:36;;;;;;;10.05;4.43;;;;;;;;;;6180405;23;20171;-91
2024/03/08 12:55:42;;;;;;;8.75;4.30;;;;;;;;;;6180528;23;20199;-92
2024/03/08 12:58:47;;;;;;;8.43;4.30;;;;;;;;;;6181682;23;20171;-90
2024/03/08 13:01:58;;;;;;;7.78;4.18;;;;;;;;;;6121414;23;1434398;-90
2024/03/08 13:05:04;;;;;;;7.32;4.07;;;;;;;;;;6181839;23;20171;-90
2024/03/08 13:08:12;;;;;;;8.95;4.53;;;;;;;;;;6184394;23;20180;-90
2024/03/08 13:11:19;;;;;;;8.77;4.32;;;;;;;;;;6184095;23;20164;-90
2024/03/08 13:14:24;;;;;;;7.15;4.22;;;;;;;;;;6182300;23;20196;-90
2024/03/08 13:17:31;;;;;;;8.85;4.40;;;;;;;;;;6186327;23;20151;-91
2024/03/08 13:20:39;;;;;;;9.27;4.45;;;;;;;;;;6184330;23;20279;-91
2024/03/08 13:23:49;;;;;;;7.60;4.75;;;;;;;;;;6184741;23;20196;-91
2024/03/08 13:26:54;;;;;;;9.65;3.88;;;;;;;;;;6184704;23;20172;-90
2024/03/08 13:30:00;;;;;;;6.60;3.13;;;;;;;;;;6181878;23;20209;-91
2024/03/08 13:33:09;;;;;;;10.07;4.72;;;;;;;;;;6185303;23;20184;-90
2024/03/08 13:36:15;;;;;;;10.75;5.03;;;;;;;;;;6181396;23;20168;-91
2024/03/08 13:39:24;;;;;;;11.63;5.68;;;;;;;;;;6187709;23;20184;-92
2024/03/08 13:42:30;;;;;;;12.00;5.75;;;;;;;;;;6183378;23;20168;-90
2024/03/08 13:45:37;;;;;;;9.93;4.47;;;;;;;;;;6182414;23;20172;-91
2024/03/08 13:48:50;;;;;;;10.98;5.20;;;;;;;;;;6183695;23;20148;-88
2024/03/08 13:51:59;;;;;;;6.47;3.35;;;;;;;;;;6181811;23;20262;-89
2024/03/08 13:55:04;;;;;;;7.75;3.90;;;;;;;;;;6183308;23;20196;-91
2024/03/08 13:58:10;;;;;;;10.50;3.72;;;;;;;;;;6184572;23;20171;-92
2024/03/08 14:01:16;;;;;;;6.00;3.33;;;;;;;;;;6183669;23;20231;-90
2024/03/08 14:04:26;;;;;;;5.85;3.40;;;;;;;;;;6185361;23;20231;-92
2024/03/08 14:07:33;;;;;;;10.73;5.25;;;;;;;;;;6183887;23;20176;-90
2024/03/08 14:10:38;;;;;;;8.00;3.45;;;;;;;;;;6185452;23;20286;-90
2024/03/08 14:13:45;;;;;;;7.75;3.80;;;;;;;;;;6181923;23;20203;-90
2024/03/08 14:16:52;;;;;;;8.13;3.55;;;;;;;;;;6182329;23;20208;-90
2024/03/08 14:19:59;;;;;;;6.78;3.67;;;;;;;;;;6181952;23;20200;-89
2024/03/08 14:23:07;;;;;;;5.68;3.10;;;;;;;;;;6180738;23;20232;-88
2024/03/08 14:26:14;;;;;;;5.97;3.10;;;;;;;;;;6183119;23;20184;-91
2024/03/08 14:29:21;;;;;;;7.35;3.42;;;;;;;;;;6183326;23;20551;-90
2024/03/08 14:32:28;;;;;;;6.05;3.25;;;;;;;;;;6184667;23;20167;-91
2024/03/08 14:35:36;;;;;;;6.43;3.63;;;;;;;;;;6200556;23;20195;-90
2024/03/08 14:38:43;;;;;;;8.68;4.28;;;;;;;;;;6183826;23;20184;-89
2024/03/08 14:41:48;;;;;;;11.13;6.07;;;;;;;;;;6185512;23;20160;-91
2024/03/08 14:44:54;;;;;;;8.88;4.05;;;;;;;;;;6185477;23;20211;-92
2024/03/08 14:47:59;;;;;;;6.15;3.35;;;;;;;;;;6183379;23;20171;-93
2024/03/08 14:51:10;;;;;;;6.25;3.40;;;;;;;;;;6182411;23;20172;-92
2024/03/08 14:54:15;;;;;;;7.18;3.47;;;;;;;;;;6183833;23;20168;-90
2024/03/08 14:57:21;;;;;;;6.32;3.75;;;;;;;;;;6183655;23;20148;-91
2024/03/08 15:00:33;;;;;;;9.35;4.30;;;;;;;;;;6183957;23;20215;-89
2024/03/08 15:03:38;;;;;;;10.43;4.50;;;;;;;;;;6182659;23;20243;-89
2024/03/08 15:06:48;;;;;;;9.00;4.28;;;;;;;;;;6180607;23;20168;-90
2024/03/08 15:09:56;;;;;;;7.43;4.15;;;;;;;;;;6198204;23;20168;-90
2024/03/08 15:13:02;;;;;;;7.78;3.88;;;;;;;;;;6183712;23;20168;-90
2024/03/08 15:16:08;;;;;;;8.85;4.43;;;;;;;;;;6183036;23;20249;-91
2024/03/08 15:19:14;;;;;;;7.50;4.25;;;;;;;;;;6184242;23;20283;-91
2024/03/08 15:22:23;;;;;;;7.97;4.25;;;;;;;;;;6183481;23;20159;-91
2024/03/08 15:25:29;;;;;;;8.15;4.20;;;;;;;;;;6181609;23;20168;-90
2024/03/08 15:28:37;;;;;;;10.35;4.43;;;;;;;;;;6183544;23;20148;-92
2024/03/08 15:31:43;;;;;;;8.27;4.45;;;;;;;;;;6182238;23;20216;-92
2024/03/08 15:34:53;;;;;;;7.38;4.18;;;;;;;;;;6188696;23;20233;-90
2024/03/08 15:38:01;;;;;;;7.25;4.30;;;;;;;;;;6181861;23;20172;-91
2024/03/08 15:41:12;;;;;;;8.88;4.50;;;;;;;;;;6185123;23;20168;-90
2024/03/08 15:44:17;;;;;;;9.32;4.22;;;;;;;;;;6202774;23;20244;-91
2024/03/08 15:47:22;;;;;;;9.38;4.43;;;;;;;;;;6181999;23;20176;-91
2024/03/08 15:50:27;;;;;;;7.82;3.53;;;;;;;;;;6181532;23;20235;-91
2024/03/08 15:53:34;;;;;;;7.45;4.15;;;;;;;;;;6181685;23;20247;-91
2024/03/08 15:56:40;;;;;;;7.40;3.80;;;;;;;;;;6182408;23;20179;-91
2024/03/08 15:59:46;;;;;;;7.65;4.25;;;;;;;;;;6183990;23;20147;-91
2024/03/08 16:02:52;;;;;;;9.57;4.55;;;;;;;;;;6184560;23;20229;-90
2024/03/08 16:05:58;;;;;;;12.90;6.68;;;;;;;;;;6183363;23;20163;-90
2024/03/08 16:09:10;;;;;;;11.43;5.10;;;;;;;;;;6184060;23;20556;-92
2024/03/08 16:12:18;;;;;;;11.45;5.20;;;;;;;;;;6183037;23;20168;-91
2024/03/08 16:15:25;;;;;;;10.63;4.60;;;;;;;;;;6181493;23;20175;-92
2024/03/08 16:18:34;;;;;;;7.65;4.40;;;;;;;;;;6199622;23;20175;-92
2024/03/08 16:21:40;;;;;;;9.23;4.63;;;;;;;;;;6183648;23;20164;-92
2024/03/08 16:24:50;;;;;;;9.80;5.30;;;;;;;;;;6184746;23;20167;-92
2024/03/08 16:27:55;;;;;;;8.95;4.05;;;;;;;;;;6183674;23;20176;-91
2024/03/08 16:31:01;;;;;;;13.43;5.53;;;;;;;;;;6183927;23;20151;-90
2024/03/08 16:37:28;;;;;;;18.73;6.97;;;;;;;;;;6185404;23;20176;-91
2024/03/08 16:40:36;;;;;;;29.45;11.43;;;;;;;;;;6184890;23;20172;-90
2024/03/08 16:43:43;;;;;;;23.08;8.95;;;;;;;;;;6201906;23;20159;-91
2024/03/08 16:46:49;;;;;;;18.73;7.82;;;;;;;;;;6185601;23;20179;-90
2024/03/08 16:49:54;;;;;;;20.67;9.25;;;;;;;;;;6185144;23;20175;-90
2024/03/08 16:53:00;;;;;;;21.15;9.52;;;;;;;;;;6184490;23;20212;-90
2024/03/08 16:56:11;;;;;;;23.65;9.93;;;;;;;;;;6184264;23;20192;-89
2024/03/08 16:59:18;;;;;;;23.70;10.25;;;;;;;;;;6184098;23;20245;-90
2024/03/08 17:02:28;;;;;;;21.17;9.63;;;;;;;;;;6205151;23;20199;-90
2024/03/08 17:05:34;;;;;;;22.25;9.75;;;;;;;;;;6186408;23;20268;-90
2024/03/08 17:12:06;;;;;;;24.50;10.90;;;;;;;;;;6184868;23;20203;-91
2024/03/08 17:15:13;;;;;;;22.45;9.77;;;;;;;;;;6201563;23;20187;-89
2024/03/08 17:18:20;;;;;;;28.33;10.52;;;;;;;;;;6187844;23;20172;-90
2024/03/08 17:21:29;;;;;;;19.75;8.65;;;;;;;;;;6207977;23;20256;-91
2024/03/08 17:24:35;;;;;;;23.13;9.52;;;;;;;;;;6189728;23;20169;-92
2024/03/08 17:27:44;;;;;;;21.60;8.85;;;;;;;;;;6182835;23;20172;-90
2024/03/08 17:30:50;;;;;;;21.88;9.18;;;;;;;;;;6184505;23;20196;-90
2024/03/08 17:33:56;;;;;;;18.65;8.70;;;;;;;;;;6184428;23;20229;-89
2024/03/08 17:37:01;;;;;;;18.52;9.25;;;;;;;;;;6185148;23;20219;-90
2024/03/08 17:40:12;;;;;;;22.58;8.68;;;;;;;;;;6183700;23;20167;-90
2024/03/08 17:43:23;;;;;;;20.13;8.00;;;;;;;;;;6182840;23;20172;-90
2024/03/08 17:46:28;;;;;;;21.60;8.50;;;;;;;;;;6183308;23;20198;-90
2024/03/08 17:49:35;;;;;;;20.90;9.05;;;;;;;;;;6184475;23;20203;-90
2024/03/08 17:52:40;;;;;;;19.67;7.93;;;;;;;;;;6183444;23;20207;-91
2024/03/08 17:55:45;;;;;;;26.85;10.48;;;;;;;;;;6185152;23;20296;-89
2024/03/08 17:58:53;;;;;;;20.15;8.68;;;;;;;;;;6181841;23;20175;-90
2024/03/08 18:01:58;;;;;;;22.30;9.13;;;;;;;;;;6182736;23;20191;-90
2024/03/08 18:05:07;;;;;;;20.05;9.13;;;;;;;;;;6185704;23;20459;-90
2024/03/08 18:08:13;;;;;;;22.13;9.40;;;;;;;;;;6183974;23;20152;-90
2024/03/08 18:11:19;;;;;;;23.27;9.75;;;;;;;;;;6183330;23;20204;-90
2024/03/08 18:14:26;;;;;;;23.40;9.27;;;;;;;;;;6181989;23;20659;-89
2024/03/08 18:17:33;;;;;;;22.20;8.68;;;;;;;;;;6181750;23;20179;-89
2024/03/08 18:20:43;;;;;;;21.38;9.15;;;;;;;;;;6180825;23;20243;-89
2024/03/08 18:23:48;;;;;;;18.25;8.57;;;;;;;;;;6182947;23;20168;-89
2024/03/08 18:26:54;;;;;;;18.80;8.82;;;;;;;;;;6181605;23;20175;-89
2024/03/08 18:30:04;;;;;;;20.60;8.95;;;;;;;;;;6181107;23;20164;-89